Terminal Aerodrome Forecast
Issued by NWS Twin Cities, MN

Home | Current Version | Previous Version | Graphics & Text | Print | Product List | Glossary On
Versions: 1 2 3 4 5 6 7 8 9 10 11 12 13 14 15 16 17 18 19 20
000
FTUS43 KMPX 040001 CCA
TAFSTC
TAF COR
KSTC 040001Z 0400/0424 23008KT 3SM HZ BKN040 BKN050
     FM040200 VRB04KT 5SM HZ BKN250
     FM040600 VRB03KT 4SM HZ BKN250
     FM041000 VRB02KT 4SM HZ BR BKN250
     FM041400 13004KT P6SM SCT050 SCT250=

USA.gov is the U.S. government's official web portal to all federal, state and local government web resources and services.